Sitc Xiamen — 3ELU — position and weather

sailwx.info

Track history (hours):
 
Tides and Currents Weather Stations Pressure Air Temp Water Temp Dewpoint Dewpoint Depression Visibility Wind Speed Wind Dir Waves Ship Positions

Sitc Xiamen

Last reported at 2014-Nov-24 15:25 UTC. Time now 2014-Nov-24 22:36 UTC.
Position N 38°51' E 121°57'.

Length 145 m; draft 7.9 m.

Type: Ship (hazmat cat A). MMSI: 355090000.

Date/timePositionNaut miles runAvg speedWind from/ knotsBaromVisibWave heightAir tempDewpointWater temp
2014-Nov-24 15:25N 38°51' E 121°57'3 0.1
2014-Nov-23 17:31N 38°54' E 121°58'0 0.0
2014-Nov-23 14:31N 38°54' E 121°58'1512.6
2014-Nov-23 13:21N 38°40' E 121°52'4315.1
2014-Nov-23 10:32N 37°59' E 121°38'1414.9
2014-Nov-23 09:33N 37°45' E 121°31'1212.1
2014-Nov-23 08:33N 37°35' E 121°23'1 0.5
2014-Nov-23 07:32N 37°35' E 121°23'0 0.0
2014-Nov-23 06:29N 37°35' E 121°23'0 0.1
2014-Nov-23 05:32N 37°35' E 121°23'0 0.0
2014-Nov-23 04:29N 37°35' E 121°23'0 0.0
2014-Nov-23 03:32N 37°35' E 121°23'0 0.0
2014-Nov-23 02:32N 37°35' E 121°23'0 0.0
2014-Nov-23 01:32N 37°35' E 121°23'0 0.0
2014-Nov-23 00:29N 37°35' E 121°23'0 0.0
2014-Nov-22 23:29N 37°35' E 121°23'4 4.4
2014-Nov-22 22:33N 37°38' E 121°25'6 6.0
2014-Nov-22 21:33N 37°43' E 121°20'1413.9
2014-Nov-22 20:33N 37°52' E 121°08'1413.8
2014-Nov-22 19:34N 37°59' E 120°52'1513.0
2014-Nov-22 18:25N 38°02' E 120°34'1312.8
2014-Nov-22 17:24N 38°07' E 120°18'1212.7
2014-Nov-22 16:27N 38°12' E 120°04'1312.8
2014-Nov-22 15:24N 38°17' E 119°49'1113.1
2014-Nov-22 14:32N 38°22' E 119°36'8414.0
2014-Nov-22 08:33N 38°57' E 117°58'9 8.0
2014-Nov-22 07:28N 38°59' E 117°47'0 0.0
2014-Nov-22 06:28N 38°59' E 117°47'0 0.0
2014-Nov-22 05:28N 38°59' E 117°47'0 0.0
2014-Nov-22 04:22N 38°59' E 117°47'0 0.0
2014-Nov-22 03:28N 38°59' E 117°47'0 0.0
2014-Nov-22 02:28N 38°59' E 117°47'0 0.0
2014-Nov-22 01:28N 38°59' E 117°47'0 0.0
2014-Nov-22 00:28N 38°59' E 117°47'0 0.0
2014-Nov-21 23:28N 38°59' E 117°47'0 0.0
2014-Nov-21 21:22N 38°59' E 117°47'0 0.0
2014-Nov-21 20:04N 38°59' E 117°47'0 0.0
2014-Nov-21 19:28N 38°59' E 117°47'0 0.0
2014-Nov-21 17:28N 38°59' E 117°47'0 0.0
2014-Nov-21 16:22N 38°59' E 117°47'0 0.0
2014-Nov-21 15:28N 38°59' E 117°47'1 1.4
2014-Nov-21 14:33N 38°58' E 117°48'1111.1
2014-Nov-21 13:33N 38°56' E 118°02'10 9.2
2014-Nov-21 12:30N 38°54' E 118°15'0 0.0
2014-Nov-21 11:24N 38°54' E 118°15'0 0.0
2014-Nov-21 07:18N 38°54' E 118°15'0 0.1
2014-Nov-21 05:30N 38°54' E 118°14'92 6.5
2014-Nov-20 15:18N 38°14' E 120°00'1115.1
2014-Nov-20 14:33N 38°09' E 120°14'3215.1
2014-Nov-20 12:26N 38°00' E 120°53'1314.5
2014-Nov-20 11:33N 37°57' E 121°09'1414.2
2014-Nov-20 10:33N 37°52' E 121°26'1414.0
2014-Nov-20 09:33N 37°49' E 121°43'1414.3
2014-Nov-20 08:33N 37°45' E 122°00'1414.5
2014-Nov-20 07:33N 37°40' E 122°18'1514.7
2014-Nov-20 06:33N 37°36' E 122°35'45611.0
2014-Nov-18 13:14N 34°01' E 130°50'23 0.9
2014-Nov-17 11:27N 33°56' E 130°24'1314.0
2014-Nov-17 10:33N 33°44' E 130°17'8 1.1
2014-Nov-17 03:18N 33°40' E 130°24'0 0.0
2014-Nov-17 02:33N 33°40' E 130°24'0 0.0
2014-Nov-17 01:33N 33°40' E 130°24'0 0.0
2014-Nov-17 00:33N 33°40' E 130°24'0 0.0
2014-Nov-16 23:32N 33°39' E 130°24'8 8.4
2014-Nov-16 22:33N 33°42' E 130°15'1313.2
2014-Nov-16 21:33N 33°42' E 129°59'41613.0
2014-Nov-15 13:33N 31°06' E 122°22'1312.8
2014-Nov-15 12:34N 31°12' E 122°09'1414.1
2014-Nov-15 11:33N 31°16' E 121°53'1212.5
2014-Nov-15 10:34N 31°20' E 121°39'0 0.3
2014-Nov-15 09:33N 31°20' E 121°39'0 0.0
2014-Nov-15 08:33N 31°20' E 121°39'0 0.0
2014-Nov-15 07:33N 31°20' E 121°39'0 0.0
2014-Nov-15 06:33N 31°20' E 121°39'0 0.0
2014-Nov-15 05:33N 31°20' E 121°39'0 0.0
2014-Nov-15 04:33N 31°20' E 121°39'0 0.0
2014-Nov-15 03:30N 31°20' E 121°39'0 0.0
2014-Nov-15 02:33N 31°20' E 121°39'0 0.0
2014-Nov-15 01:33N 31°20' E 121°39'0 0.0
2014-Nov-15 00:33N 31°20' E 121°39'0 0.0
2014-Nov-14 23:33N 31°20' E 121°39'0 0.1
2014-Nov-14 22:33N 31°20' E 121°39'7 6.9
2014-Nov-14 21:34N 31°16' E 121°45'1514.6
2014-Nov-14 20:33N 31°06' E 121°58'1313.0
2014-Nov-14 19:33N 31°03' E 122°13'  
Track history (hours):
 
Tides and Currents Weather Stations Pressure Air Temp Water Temp Dewpoint Dewpoint Depression Visibility Wind Speed Wind Dir Waves Ship Positions

Sitc Xiamen

Last reported at 2014-Nov-24 15:25 UTC. Time now 2014-Nov-24 22:36 UTC.
Position N 38°51' E 121°57'.

Length 145 m; draft 7.9 m.

Type: Ship (hazmat cat A). MMSI: 355090000.

Date/timePositionNaut miles runAvg speedWind from/ knotsBaromVisibWave heightAir tempDewpointWater temp
2014-Nov-24 15:25N 38°51' E 121°57'3 0.1
2014-Nov-23 17:31N 38°54' E 121°58'0 0.0
2014-Nov-23 14:31N 38°54' E 121°58'1512.6
2014-Nov-23 13:21N 38°40' E 121°52'4315.1
2014-Nov-23 10:32N 37°59' E 121°38'1414.9
2014-Nov-23 09:33N 37°45' E 121°31'1212.1
2014-Nov-23 08:33N 37°35' E 121°23'1 0.5
2014-Nov-23 07:32N 37°35' E 121°23'0 0.0
2014-Nov-23 06:29N 37°35' E 121°23'0 0.1
2014-Nov-23 05:32N 37°35' E 121°23'0 0.0
2014-Nov-23 04:29N 37°35' E 121°23'0 0.0
2014-Nov-23 03:32N 37°35' E 121°23'0 0.0
2014-Nov-23 02:32N 37°35' E 121°23'0 0.0
2014-Nov-23 01:32N 37°35' E 121°23'0 0.0
2014-Nov-23 00:29N 37°35' E 121°23'0 0.0
2014-Nov-22 23:29N 37°35' E 121°23'4 4.4
2014-Nov-22 22:33N 37°38' E 121°25'6 6.0
2014-Nov-22 21:33N 37°43' E 121°20'1413.9
2014-Nov-22 20:33N 37°52' E 121°08'1413.8
2014-Nov-22 19:34N 37°59' E 120°52'1513.0
2014-Nov-22 18:25N 38°02' E 120°34'1312.8
2014-Nov-22 17:24N 38°07' E 120°18'1212.7
2014-Nov-22 16:27N 38°12' E 120°04'1312.8
2014-Nov-22 15:24N 38°17' E 119°49'1113.1
2014-Nov-22 14:32N 38°22' E 119°36'8414.0
2014-Nov-22 08:33N 38°57' E 117°58'9 8.0
2014-Nov-22 07:28N 38°59' E 117°47'0 0.0
2014-Nov-22 06:28N 38°59' E 117°47'0 0.0
2014-Nov-22 05:28N 38°59' E 117°47'0 0.0
2014-Nov-22 04:22N 38°59' E 117°47'0 0.0
2014-Nov-22 03:28N 38°59' E 117°47'0 0.0
2014-Nov-22 02:28N 38°59' E 117°47'0 0.0
2014-Nov-22 01:28N 38°59' E 117°47'0 0.0
2014-Nov-22 00:28N 38°59' E 117°47'0 0.0
2014-Nov-21 23:28N 38°59' E 117°47'0 0.0
2014-Nov-21 21:22N 38°59' E 117°47'0 0.0
2014-Nov-21 20:04N 38°59' E 117°47'0 0.0
2014-Nov-21 19:28N 38°59' E 117°47'0 0.0
2014-Nov-21 17:28N 38°59' E 117°47'0 0.0
2014-Nov-21 16:22N 38°59' E 117°47'0 0.0
2014-Nov-21 15:28N 38°59' E 117°47'1 1.4
2014-Nov-21 14:33N 38°58' E 117°48'1111.1
2014-Nov-21 13:33N 38°56' E 118°02'10 9.2
2014-Nov-21 12:30N 38°54' E 118°15'0 0.0
2014-Nov-21 11:24N 38°54' E 118°15'0 0.0
2014-Nov-21 07:18N 38°54' E 118°15'0 0.1
2014-Nov-21 05:30N 38°54' E 118°14'92 6.5
2014-Nov-20 15:18N 38°14' E 120°00'1115.1
2014-Nov-20 14:33N 38°09' E 120°14'3215.1
2014-Nov-20 12:26N 38°00' E 120°53'1314.5
2014-Nov-20 11:33N 37°57' E 121°09'1414.2
2014-Nov-20 10:33N 37°52' E 121°26'1414.0
2014-Nov-20 09:33N 37°49' E 121°43'1414.3
2014-Nov-20 08:33N 37°45' E 122°00'1414.5
2014-Nov-20 07:33N 37°40' E 122°18'1514.7
2014-Nov-20 06:33N 37°36' E 122°35'45611.0
2014-Nov-18 13:14N 34°01' E 130°50'23 0.9
2014-Nov-17 11:27N 33°56' E 130°24'1314.0
2014-Nov-17 10:33N 33°44' E 130°17'8 1.1
2014-Nov-17 03:18N 33°40' E 130°24'0 0.0
2014-Nov-17 02:33N 33°40' E 130°24'0 0.0
2014-Nov-17 01:33N 33°40' E 130°24'0 0.0
2014-Nov-17 00:33N 33°40' E 130°24'0 0.0
2014-Nov-16 23:32N 33°39' E 130°24'8 8.4
2014-Nov-16 22:33N 33°42' E 130°15'1313.2
2014-Nov-16 21:33N 33°42' E 129°59'41613.0
2014-Nov-15 13:33N 31°06' E 122°22'1312.8
2014-Nov-15 12:34N 31°12' E 122°09'1414.1
2014-Nov-15 11:33N 31°16' E 121°53'1212.5
2014-Nov-15 10:34N 31°20' E 121°39'0 0.3
2014-Nov-15 09:33N 31°20' E 121°39'0 0.0
2014-Nov-15 08:33N 31°20' E 121°39'0 0.0
2014-Nov-15 07:33N 31°20' E 121°39'0 0.0
2014-Nov-15 06:33N 31°20' E 121°39'0 0.0
2014-Nov-15 05:33N 31°20' E 121°39'0 0.0
2014-Nov-15 04:33N 31°20' E 121°39'0 0.0
2014-Nov-15 03:30N 31°20' E 121°39'0 0.0
2014-Nov-15 02:33N 31°20' E 121°39'0 0.0
2014-Nov-15 01:33N 31°20' E 121°39'0 0.0
2014-Nov-15 00:33N 31°20' E 121°39'0 0.0
2014-Nov-14 23:33N 31°20' E 121°39'0 0.1
2014-Nov-14 22:33N 31°20' E 121°39'7 6.9
2014-Nov-14 21:34N 31°16' E 121°45'1514.6
2014-Nov-14 20:33N 31°06' E 121°58'1313.0
2014-Nov-14 19:33N 31°03' E 122°13'  

Dump ship's entire track history